sensor_id;sensor_type;location;lat;lon;timestamp;P1;durP1;ratioP1;P2;durP2;ratioP2
22439;SDS011;11387;51.612;7.210;2022-08-07T00:01:19;4.10;;;1.70;;
22439;SDS011;11387;51.612;7.210;2022-08-07T00:04:43;3.10;;;1.75;;
22439;SDS011;11387;51.612;7.210;2022-08-07T00:07:46;5.18;;;1.58;;
22439;SDS011;11387;51.612;7.210;2022-08-07T00:11:01;3.20;;;1.60;;
22439;SDS011;11387;51.612;7.210;2022-08-07T00:14:06;3.28;;;2.08;;
22439;SDS011;11387;51.612;7.210;2022-08-07T00:20:15;5.03;;;2.45;;
22439;SDS011;11387;51.612;7.210;2022-08-07T00:23:35;4.30;;;1.90;;
22439;SDS011;11387;51.612;7.210;2022-08-07T00:26:40;4.95;;;2.15;;
22439;SDS011;11387;51.612;7.210;2022-08-07T00:30:03;3.50;;;1.77;;
22439;SDS011;11387;51.612;7.210;2022-08-07T00:33:22;8.05;;;2.35;;
22439;SDS011;11387;51.612;7.210;2022-08-07T00:36:34;5.78;;;2.35;;
22439;SDS011;11387;51.612;7.210;2022-08-07T00:39:43;2.72;;;1.50;;
22439;SDS011;11387;51.612;7.210;2022-08-07T00:42:55;3.97;;;1.98;;
22439;SDS011;11387;51.612;7.210;2022-08-07T00:45:59;2.15;;;1.48;;
22439;SDS011;11387;51.612;7.210;2022-08-07T00:49:03;5.63;;;1.80;;
22439;SDS011;11387;51.612;7.210;2022-08-07T00:52:09;4.05;;;2.10;;
22439;SDS011;11387;51.612;7.210;2022-08-07T00:55:12;2.85;;;1.83;;
22439;SDS011;11387;51.612;7.210;2022-08-07T00:58:25;5.28;;;1.70;;
22439;SDS011;11387;51.612;7.210;2022-08-07T01:01:28;5.20;;;1.77;;
22439;SDS011;11387;51.612;7.210;2022-08-07T01:04:45;5.40;;;1.80;;
22439;SDS011;11387;51.612;7.210;2022-08-07T01:07:50;4.13;;;1.98;;
22439;SDS011;11387;51.612;7.210;2022-08-07T01:10:55;3.28;;;2.00;;
22439;SDS011;11387;51.612;7.210;2022-08-07T01:14:18;3.78;;;2.00;;
22439;SDS011;11387;51.612;7.210;2022-08-07T01:17:30;4.47;;;2.15;;
22439;SDS011;11387;51.612;7.210;2022-08-07T01:20:33;4.63;;;2.00;;
22439;SDS011;11387;51.612;7.210;2022-08-07T01:23:45;2.60;;;1.77;;
22439;SDS011;11387;51.612;7.210;2022-08-07T01:26:49;6.68;;;2.50;;
22439;SDS011;11387;51.612;7.210;2022-08-07T01:29:55;3.22;;;2.17;;
22439;SDS011;11387;51.612;7.210;2022-08-07T01:32:58;6.22;;;1.90;;
22439;SDS011;11387;51.612;7.210;2022-08-07T01:36:04;6.15;;;2.13;;
22439;SDS011;11387;51.612;7.210;2022-08-07T01:39:14;5.80;;;1.77;;
22439;SDS011;11387;51.612;7.210;2022-08-07T01:42:25;3.33;;;2.20;;
22439;SDS011;11387;51.612;7.210;2022-08-07T01:45:41;3.08;;;1.90;;
22439;SDS011;11387;51.612;7.210;2022-08-07T01:48:51;2.90;;;2.08;;
22439;SDS011;11387;51.612;7.210;2022-08-07T01:51:56;4.80;;;2.10;;
22439;SDS011;11387;51.612;7.210;2022-08-07T01:55:07;5.53;;;2.55;;
22439;SDS011;11387;51.612;7.210;2022-08-07T01:58:23;6.13;;;2.05;;
22439;SDS011;11387;51.612;7.210;2022-08-07T02:01:38;5.47;;;2.25;;
22439;SDS011;11387;51.612;7.210;2022-08-07T02:05:03;4.57;;;2.00;;
22439;SDS011;11387;51.612;7.210;2022-08-07T02:08:10;6.07;;;2.22;;
22439;SDS011;11387;51.612;7.210;2022-08-07T02:11:16;3.13;;;2.00;;
22439;SDS011;11387;51.612;7.210;2022-08-07T02:14:40;5.32;;;2.03;;
22439;SDS011;11387;51.612;7.210;2022-08-07T02:17:52;3.60;;;2.20;;
22439;SDS011;11387;51.612;7.210;2022-08-07T02:20:57;5.93;;;2.47;;
22439;SDS011;11387;51.612;7.210;2022-08-07T02:24:07;6.07;;;2.75;;
22439;SDS011;11387;51.612;7.210;2022-08-07T02:27:20;4.85;;;2.65;;
22439;SDS011;11387;51.612;7.210;2022-08-07T02:30:24;4.32;;;2.65;;
22439;SDS011;11387;51.612;7.210;2022-08-07T02:33:28;4.47;;;2.90;;
22439;SDS011;11387;51.612;7.210;2022-08-07T02:36:43;4.18;;;2.70;;
22439;SDS011;11387;51.612;7.210;2022-08-07T02:39:50;3.83;;;2.75;;
22439;SDS011;11387;51.612;7.210;2022-08-07T02:43:18;5.00;;;2.90;;
22439;SDS011;11387;51.612;7.210;2022-08-07T02:46:24;6.75;;;2.92;;
22439;SDS011;11387;51.612;7.210;2022-08-07T02:49:30;5.38;;;3.15;;
22439;SDS011;11387;51.612;7.210;2022-08-07T02:52:53;5.47;;;3.00;;
22439;SDS011;11387;51.612;7.210;2022-08-07T02:56:05;7.95;;;2.85;;
22439;SDS011;11387;51.612;7.210;2022-08-07T02:59:23;6.72;;;2.90;;
22439;SDS011;11387;51.612;7.210;2022-08-07T03:02:31;4.90;;;2.80;;
22439;SDS011;11387;51.612;7.210;2022-08-07T03:05:35;7.00;;;3.08;;
22439;SDS011;11387;51.612;7.210;2022-08-07T03:08:39;6.43;;;2.78;;
22439;SDS011;11387;51.612;7.210;2022-08-07T03:11:42;6.82;;;3.03;;
22439;SDS011;11387;51.612;7.210;2022-08-07T03:15:01;6.90;;;3.03;;
22439;SDS011;11387;51.612;7.210;2022-08-07T03:18:09;9.25;;;3.25;;
22439;SDS011;11387;51.612;7.210;2022-08-07T03:21:18;6.03;;;2.40;;
22439;SDS011;11387;51.612;7.210;2022-08-07T03:24:23;3.88;;;2.72;;
22439;SDS011;11387;51.612;7.210;2022-08-07T03:27:30;4.18;;;2.60;;
22439;SDS011;11387;51.612;7.210;2022-08-07T03:30:55;3.47;;;2.50;;
22439;SDS011;11387;51.612;7.210;2022-08-07T03:34:15;7.78;;;2.88;;
22439;SDS011;11387;51.612;7.210;2022-08-07T03:37:26;5.72;;;2.70;;
22439;SDS011;11387;51.612;7.210;2022-08-07T03:40:37;6.60;;;3.20;;
22439;SDS011;11387;51.612;7.210;2022-08-07T03:43:47;7.65;;;3.10;;
22439;SDS011;11387;51.612;7.210;2022-08-07T03:47:03;4.35;;;3.17;;
22439;SDS011;11387;51.612;7.210;2022-08-07T03:50:16;4.13;;;3.20;;
22439;SDS011;11387;51.612;7.210;2022-08-07T03:53:25;5.75;;;3.42;;
22439;SDS011;11387;51.612;7.210;2022-08-07T03:56:49;9.88;;;3.65;;
22439;SDS011;11387;51.612;7.210;2022-08-07T04:00:05;6.75;;;3.90;;
22439;SDS011;11387;51.612;7.210;2022-08-07T04:03:17;9.27;;;4.05;;
22439;SDS011;11387;51.612;7.210;2022-08-07T04:06:23;9.35;;;4.47;;
22439;SDS011;11387;51.612;7.210;2022-08-07T04:09:45;7.32;;;4.00;;
22439;SDS011;11387;51.612;7.210;2022-08-07T04:12:55;7.88;;;4.53;;
22439;SDS011;11387;51.612;7.210;2022-08-07T04:16:00;9.95;;;4.47;;
22439;SDS011;11387;51.612;7.210;2022-08-07T04:19:04;11.40;;;4.45;;
22439;SDS011;11387;51.612;7.210;2022-08-07T04:22:20;7.68;;;4.47;;
22439;SDS011;11387;51.612;7.210;2022-08-07T04:25:23;6.60;;;4.55;;
22439;SDS011;11387;51.612;7.210;2022-08-07T04:28:30;8.98;;;4.65;;
22439;SDS011;11387;51.612;7.210;2022-08-07T04:31:36;6.32;;;4.53;;
22439;SDS011;11387;51.612;7.210;2022-08-07T04:35:00;9.90;;;4.80;;
22439;SDS011;11387;51.612;7.210;2022-08-07T04:38:06;8.13;;;4.70;;
22439;SDS011;11387;51.612;7.210;2022-08-07T04:41:14;12.20;;;4.60;;
22439;SDS011;11387;51.612;7.210;2022-08-07T04:44:20;8.30;;;4.55;;
22439;SDS011;11387;51.612;7.210;2022-08-07T04:47:26;6.40;;;4.90;;
22439;SDS011;11387;51.612;7.210;2022-08-07T04:50:59;7.22;;;4.75;;
22439;SDS011;11387;51.612;7.210;2022-08-07T04:54:07;9.88;;;5.25;;
22439;SDS011;11387;51.612;7.210;2022-08-07T04:57:16;8.23;;;5.40;;
22439;SDS011;11387;51.612;7.210;2022-08-07T05:00:42;9.40;;;5.28;;
22439;SDS011;11387;51.612;7.210;2022-08-07T05:03:48;8.23;;;4.90;;
22439;SDS011;11387;51.612;7.210;2022-08-07T05:10:25;10.23;;;4.82;;
22439;SDS011;11387;51.612;7.210;2022-08-07T05:13:31;9.57;;;5.05;;
22439;SDS011;11387;51.612;7.210;2022-08-07T05:16:58;7.50;;;5.00;;
22439;SDS011;11387;51.612;7.210;2022-08-07T05:20:06;14.55;;;5.80;;
22439;SDS011;11387;51.612;7.210;2022-08-07T05:23:15;8.80;;;5.43;;
22439;SDS011;11387;51.612;7.210;2022-08-07T05:26:23;9.48;;;5.63;;
22439;SDS011;11387;51.612;7.210;2022-08-07T05:29:33;8.90;;;5.60;;
22439;SDS011;11387;51.612;7.210;2022-08-07T05:32:53;11.27;;;4.97;;
22439;SDS011;11387;51.612;7.210;2022-08-07T05:35:59;10.63;;;5.30;;
22439;SDS011;11387;51.612;7.210;2022-08-07T05:39:04;10.55;;;5.15;;
22439;SDS011;11387;51.612;7.210;2022-08-07T05:42:34;7.10;;;4.43;;
22439;SDS011;11387;51.612;7.210;2022-08-07T05:45:41;7.72;;;5.05;;
22439;SDS011;11387;51.612;7.210;2022-08-07T05:48:51;8.73;;;5.32;;
22439;SDS011;11387;51.612;7.210;2022-08-07T05:52:04;6.88;;;4.50;;
22439;SDS011;11387;51.612;7.210;2022-08-07T05:55:07;8.93;;;4.15;;
22439;SDS011;11387;51.612;7.210;2022-08-07T05:58:17;6.32;;;4.07;;
22439;SDS011;11387;51.612;7.210;2022-08-07T06:01:38;7.32;;;4.25;;
22439;SDS011;11387;51.612;7.210;2022-08-07T06:04:44;6.65;;;4.20;;
22439;SDS011;11387;51.612;7.210;2022-08-07T06:07:51;7.93;;;3.75;;
22439;SDS011;11387;51.612;7.210;2022-08-07T06:11:14;6.43;;;3.45;;
22439;SDS011;11387;51.612;7.210;2022-08-07T06:14:19;7.68;;;4.22;;
22439;SDS011;11387;51.612;7.210;2022-08-07T06:17:33;6.60;;;3.92;;
22439;SDS011;11387;51.612;7.210;2022-08-07T06:20:39;7.97;;;4.82;;
22439;SDS011;11387;51.612;7.210;2022-08-07T06:24:02;6.35;;;3.40;;
22439;SDS011;11387;51.612;7.210;2022-08-07T06:27:25;4.75;;;3.63;;
22439;SDS011;11387;51.612;7.210;2022-08-07T06:30:50;7.18;;;3.90;;
22439;SDS011;11387;51.612;7.210;2022-08-07T06:33:55;8.75;;;4.05;;
22439;SDS011;11387;51.612;7.210;2022-08-07T06:36:59;5.55;;;3.58;;
22439;SDS011;11387;51.612;7.210;2022-08-07T06:40:08;4.05;;;3.30;;
22439;SDS011;11387;51.612;7.210;2022-08-07T06:43:24;3.92;;;2.85;;
22439;SDS011;11387;51.612;7.210;2022-08-07T06:46:45;4.57;;;2.95;;
22439;SDS011;11387;51.612;7.210;2022-08-07T06:50:09;5.00;;;2.88;;
22439;SDS011;11387;51.612;7.210;2022-08-07T06:53:14;6.00;;;2.60;;
22439;SDS011;11387;51.612;7.210;2022-08-07T06:56:37;3.60;;;3.08;;
22439;SDS011;11387;51.612;7.210;2022-08-07T06:59:55;7.28;;;3.08;;
22439;SDS011;11387;51.612;7.210;2022-08-07T07:03:20;8.73;;;3.50;;
22439;SDS011;11387;51.612;7.210;2022-08-07T07:06:42;5.57;;;3.10;;
22439;SDS011;11387;51.612;7.210;2022-08-07T07:10:01;4.85;;;3.30;;
22439;SDS011;11387;51.612;7.210;2022-08-07T07:13:06;5.63;;;3.25;;
22439;SDS011;11387;51.612;7.210;2022-08-07T07:16:11;7.07;;;3.40;;
22439;SDS011;11387;51.612;7.210;2022-08-07T07:19:27;6.80;;;3.55;;
22439;SDS011;11387;51.612;7.210;2022-08-07T07:22:51;3.97;;;3.20;;
22439;SDS011;11387;51.612;7.210;2022-08-07T07:26:16;9.07;;;3.75;;
22439;SDS011;11387;51.612;7.210;2022-08-07T07:29:37;5.63;;;3.50;;
22439;SDS011;11387;51.612;7.210;2022-08-07T07:33:01;10.05;;;3.90;;
22439;SDS011;11387;51.612;7.210;2022-08-07T07:36:06;20.83;;;9.05;;
22439;SDS011;11387;51.612;7.210;2022-08-07T07:39:13;5.57;;;3.67;;
22439;SDS011;11387;51.612;7.210;2022-08-07T07:42:17;7.80;;;3.75;;
22439;SDS011;11387;51.612;7.210;2022-08-07T07:45:32;6.30;;;3.60;;
22439;SDS011;11387;51.612;7.210;2022-08-07T07:48:55;9.00;;;3.72;;
22439;SDS011;11387;51.612;7.210;2022-08-07T07:52:12;6.63;;;4.20;;
22439;SDS011;11387;51.612;7.210;2022-08-07T07:55:17;5.82;;;3.75;;
22439;SDS011;11387;51.612;7.210;2022-08-07T07:58:20;8.10;;;3.60;;
22439;SDS011;11387;51.612;7.210;2022-08-07T08:01:23;3.83;;;3.42;;
22439;SDS011;11387;51.612;7.210;2022-08-07T08:04:46;8.02;;;3.35;;
22439;SDS011;11387;51.612;7.210;2022-08-07T08:07:52;5.45;;;2.75;;
22439;SDS011;11387;51.612;7.210;2022-08-07T08:11:02;4.80;;;2.88;;
22439;SDS011;11387;51.612;7.210;2022-08-07T08:14:05;3.50;;;2.10;;
22439;SDS011;11387;51.612;7.210;2022-08-07T08:17:08;3.55;;;2.38;;
22439;SDS011;11387;51.612;7.210;2022-08-07T08:20:32;10.67;;;5.50;;
22439;SDS011;11387;51.612;7.210;2022-08-07T08:23:38;3.50;;;1.80;;
22439;SDS011;11387;51.612;7.210;2022-08-07T08:26:59;1.98;;;1.33;;
22439;SDS011;11387;51.612;7.210;2022-08-07T08:30:10;2.83;;;1.80;;
22439;SDS011;11387;51.612;7.210;2022-08-07T08:33:20;2.22;;;1.35;;
22439;SDS011;11387;51.612;7.210;2022-08-07T08:36:25;2.47;;;1.17;;
22439;SDS011;11387;51.612;7.210;2022-08-07T08:39:31;5.75;;;1.08;;
22439;SDS011;11387;51.612;7.210;2022-08-07T08:42:57;2.83;;;1.02;;
22439;SDS011;11387;51.612;7.210;2022-08-07T08:46:05;2.85;;;1.13;;
22439;SDS011;11387;51.612;7.210;2022-08-07T08:49:12;1.20;;;0.80;;
22439;SDS011;11387;51.612;7.210;2022-08-07T08:52:17;8.95;;;4.72;;
22439;SDS011;11387;51.612;7.210;2022-08-07T08:55:24;5.28;;;1.50;;
22439;SDS011;11387;51.612;7.210;2022-08-07T08:58:59;1.77;;;1.08;;
22439;SDS011;11387;51.612;7.210;2022-08-07T09:02:16;1.65;;;0.90;;
22439;SDS011;11387;51.612;7.210;2022-08-07T09:05:39;1.23;;;0.68;;
22439;SDS011;11387;51.612;7.210;2022-08-07T09:08:45;1.38;;;0.52;;
22439;SDS011;11387;51.612;7.210;2022-08-07T09:12:26;0.68;;;0.43;;
22439;SDS011;11387;51.612;7.210;2022-08-07T09:15:35;2.95;;;0.50;;
22439;SDS011;11387;51.612;7.210;2022-08-07T09:22:39;1.85;;;0.60;;
22439;SDS011;11387;51.612;7.210;2022-08-07T09:26:09;1.30;;;0.90;;
22439;SDS011;11387;51.612;7.210;2022-08-07T09:29:25;0.90;;;0.40;;
22439;SDS011;11387;51.612;7.210;2022-08-07T09:33:05;0.75;;;0.40;;
22439;SDS011;11387;51.612;7.210;2022-08-07T09:36:27;0.40;;;0.40;;
22439;SDS011;11387;51.612;7.210;2022-08-07T09:39:39;1.23;;;0.45;;
22439;SDS011;11387;51.612;7.210;2022-08-07T09:42:57;1.42;;;0.70;;
22439;SDS011;11387;51.612;7.210;2022-08-07T09:46:07;1.35;;;0.45;;
22439;SDS011;11387;51.612;7.210;2022-08-07T09:49:42;3.78;;;0.73;;
22439;SDS011;11387;51.612;7.210;2022-08-07T09:53:09;0.57;;;0.40;;
22439;SDS011;11387;51.612;7.210;2022-08-07T09:59:29;3.20;;;0.50;;
22439;SDS011;11387;51.612;7.210;2022-08-07T10:06:18;2.13;;;0.60;;
22439;SDS011;11387;51.612;7.210;2022-08-07T10:09:38;2.53;;;0.93;;
22439;SDS011;11387;51.612;7.210;2022-08-07T10:13:10;1.25;;;0.45;;
22439;SDS011;11387;51.612;7.210;2022-08-07T10:16:37;1.10;;;0.50;;
22439;SDS011;11387;51.612;7.210;2022-08-07T10:19:48;1.08;;;0.50;;
22439;SDS011;11387;51.612;7.210;2022-08-07T10:23:06;1.08;;;0.70;;
22439;SDS011;11387;51.612;7.210;2022-08-07T10:26:22;2.13;;;0.80;;
22439;SDS011;11387;51.612;7.210;2022-08-07T10:29:37;0.60;;;0.60;;
22439;SDS011;11387;51.612;7.210;2022-08-07T10:32:59;1.33;;;0.65;;
22439;SDS011;11387;51.612;7.210;2022-08-07T10:36:14;2.08;;;0.60;;
22439;SDS011;11387;51.612;7.210;2022-08-07T10:39:36;3.20;;;0.80;;
22439;SDS011;11387;51.612;7.210;2022-08-07T10:42:45;4.85;;;0.70;;
22439;SDS011;11387;51.612;7.210;2022-08-07T10:45:54;1.42;;;0.70;;
22439;SDS011;11387;51.612;7.210;2022-08-07T10:49:01;1.10;;;0.63;;
22439;SDS011;11387;51.612;7.210;2022-08-07T10:52:11;1.48;;;0.70;;
22439;SDS011;11387;51.612;7.210;2022-08-07T10:55:22;0.63;;;0.50;;
22439;SDS011;11387;51.612;7.210;2022-08-07T10:58:45;1.38;;;0.70;;
22439;SDS011;11387;51.612;7.210;2022-08-07T11:02:00;2.00;;;0.50;;
22439;SDS011;11387;51.612;7.210;2022-08-07T11:05:30;2.30;;;0.80;;
22439;SDS011;11387;51.612;7.210;2022-08-07T11:08:51;1.75;;;0.50;;
22439;SDS011;11387;51.612;7.210;2022-08-07T11:11:58;0.75;;;0.40;;
22439;SDS011;11387;51.612;7.210;2022-08-07T11:15:07;2.08;;;0.52;;
22439;SDS011;11387;51.612;7.210;2022-08-07T11:18:19;1.93;;;0.60;;
22439;SDS011;11387;51.612;7.210;2022-08-07T11:21:28;1.30;;;0.65;;
22439;SDS011;11387;51.612;7.210;2022-08-07T11:24:43;1.35;;;0.65;;
22439;SDS011;11387;51.612;7.210;2022-08-07T11:27:56;1.92;;;0.70;;
22439;SDS011;11387;51.612;7.210;2022-08-07T11:31:05;0.85;;;0.50;;
22439;SDS011;11387;51.612;7.210;2022-08-07T11:34:15;2.78;;;0.50;;
22439;SDS011;11387;51.612;7.210;2022-08-07T11:37:24;3.55;;;0.47;;
22439;SDS011;11387;51.612;7.210;2022-08-07T11:40:55;1.23;;;0.65;;
22439;SDS011;11387;51.612;7.210;2022-08-07T11:44:02;1.48;;;0.45;;
22439;SDS011;11387;51.612;7.210;2022-08-07T11:47:16;1.27;;;0.60;;
22439;SDS011;11387;51.612;7.210;2022-08-07T11:50:46;1.58;;;0.47;;
22439;SDS011;11387;51.612;7.210;2022-08-07T11:53:59;0.77;;;0.40;;
22439;SDS011;11387;51.612;7.210;2022-08-07T11:57:14;1.42;;;0.57;;
22439;SDS011;11387;51.612;7.210;2022-08-07T12:00:24;1.13;;;0.50;;
22439;SDS011;11387;51.612;7.210;2022-08-07T12:03:35;0.68;;;0.45;;
22439;SDS011;11387;51.612;7.210;2022-08-07T12:06:47;1.38;;;0.40;;
22439;SDS011;11387;51.612;7.210;2022-08-07T12:10:03;1.30;;;0.52;;
22439;SDS011;11387;51.612;7.210;2022-08-07T12:13:10;1.67;;;0.50;;
22439;SDS011;11387;51.612;7.210;2022-08-07T12:16:21;0.30;;;0.30;;
22439;SDS011;11387;51.612;7.210;2022-08-07T12:19:33;1.15;;;0.50;;
22439;SDS011;11387;51.612;7.210;2022-08-07T12:23:07;0.50;;;0.40;;
22439;SDS011;11387;51.612;7.210;2022-08-07T12:26:16;3.95;;;3.53;;
22439;SDS011;11387;51.612;7.210;2022-08-07T12:29:31;1.83;;;0.35;;
22439;SDS011;11387;51.612;7.210;2022-08-07T12:32:44;1.98;;;0.40;;
22439;SDS011;11387;51.612;7.210;2022-08-07T12:35:50;2.28;;;0.55;;
22439;SDS011;11387;51.612;7.210;2022-08-07T12:38:58;1.83;;;0.40;;
22439;SDS011;11387;51.612;7.210;2022-08-07T12:42:09;2.83;;;0.90;;
22439;SDS011;11387;51.612;7.210;2022-08-07T12:45:14;0.45;;;0.40;;
22439;SDS011;11387;51.612;7.210;2022-08-07T12:48:23;0.30;;;0.30;;
22439;SDS011;11387;51.612;7.210;2022-08-07T12:51:49;2.83;;;0.70;;
22439;SDS011;11387;51.612;7.210;2022-08-07T12:55:13;3.40;;;0.80;;
22439;SDS011;11387;51.612;7.210;2022-08-07T12:58:19;2.97;;;0.50;;
22439;SDS011;11387;51.612;7.210;2022-08-07T13:01:31;0.82;;;0.50;;
22439;SDS011;11387;51.612;7.210;2022-08-07T13:04:47;1.10;;;0.47;;
22439;SDS011;11387;51.612;7.210;2022-08-07T13:08:25;1.25;;;0.50;;
22439;SDS011;11387;51.612;7.210;2022-08-07T13:11:33;1.50;;;0.47;;
22439;SDS011;11387;51.612;7.210;2022-08-07T13:15:01;1.95;;;0.40;;
22439;SDS011;11387;51.612;7.210;2022-08-07T13:18:12;0.95;;;0.50;;
22439;SDS011;11387;51.612;7.210;2022-08-07T13:21:29;1.13;;;0.40;;
22439;SDS011;11387;51.612;7.210;2022-08-07T13:24:52;0.63;;;0.50;;
22439;SDS011;11387;51.612;7.210;2022-08-07T13:27:57;2.13;;;0.50;;
22439;SDS011;11387;51.612;7.210;2022-08-07T13:31:16;0.57;;;0.40;;
22439;SDS011;11387;51.612;7.210;2022-08-07T13:34:22;3.05;;;0.40;;
22439;SDS011;11387;51.612;7.210;2022-08-07T13:37:40;2.30;;;0.50;;
22439;SDS011;11387;51.612;7.210;2022-08-07T13:40:56;2.05;;;0.70;;
22439;SDS011;11387;51.612;7.210;2022-08-07T13:44:03;1.17;;;0.60;;
22439;SDS011;11387;51.612;7.210;2022-08-07T13:47:12;1.05;;;0.60;;
22439;SDS011;11387;51.612;7.210;2022-08-07T13:50:22;1.35;;;0.65;;
22439;SDS011;11387;51.612;7.210;2022-08-07T13:53:50;1.52;;;0.80;;
22439;SDS011;11387;51.612;7.210;2022-08-07T13:57:03;1.88;;;1.05;;
22439;SDS011;11387;51.612;7.210;2022-08-07T14:00:15;0.95;;;0.50;;
22439;SDS011;11387;51.612;7.210;2022-08-07T14:03:29;1.40;;;0.50;;
22439;SDS011;11387;51.612;7.210;2022-08-07T14:06:51;3.83;;;0.50;;
22439;SDS011;11387;51.612;7.210;2022-08-07T14:09:57;2.25;;;0.50;;
22439;SDS011;11387;51.612;7.210;2022-08-07T14:13:19;0.82;;;0.40;;
22439;SDS011;11387;51.612;7.210;2022-08-07T14:16:35;3.38;;;0.52;;
22439;SDS011;11387;51.612;7.210;2022-08-07T14:19:43;1.88;;;0.80;;
22439;SDS011;11387;51.612;7.210;2022-08-07T14:23:08;1.00;;;0.50;;
22439;SDS011;11387;51.612;7.210;2022-08-07T14:26:14;0.40;;;0.40;;
22439;SDS011;11387;51.612;7.210;2022-08-07T14:29:31;1.13;;;0.50;;
22439;SDS011;11387;51.612;7.210;2022-08-07T14:32:56;5.43;;;0.80;;
22439;SDS011;11387;51.612;7.210;2022-08-07T14:35:59;1.88;;;0.68;;
22439;SDS011;11387;51.612;7.210;2022-08-07T14:39:03;0.98;;;0.50;;
22439;SDS011;11387;51.612;7.210;2022-08-07T14:45:23;1.75;;;0.50;;
22439;SDS011;11387;51.612;7.210;2022-08-07T14:48:46;1.45;;;0.77;;
22439;SDS011;11387;51.612;7.210;2022-08-07T14:51:50;2.22;;;0.50;;
22439;SDS011;11387;51.612;7.210;2022-08-07T14:55:05;1.52;;;0.60;;
22439;SDS011;11387;51.612;7.210;2022-08-07T14:58:09;1.98;;;0.80;;
22439;SDS011;11387;51.612;7.210;2022-08-07T15:01:27;1.10;;;0.60;;
22439;SDS011;11387;51.612;7.210;2022-08-07T15:04:51;2.33;;;0.50;;
22439;SDS011;11387;51.612;7.210;2022-08-07T15:07:54;2.20;;;0.60;;
22439;SDS011;11387;51.612;7.210;2022-08-07T15:11:18;1.10;;;0.50;;
22439;SDS011;11387;51.612;7.210;2022-08-07T15:14:46;1.75;;;0.50;;
22439;SDS011;11387;51.612;7.210;2022-08-07T15:18:00;2.53;;;0.60;;
22439;SDS011;11387;51.612;7.210;2022-08-07T15:21:16;1.27;;;0.60;;
22439;SDS011;11387;51.612;7.210;2022-08-07T15:24:39;1.00;;;0.60;;
22439;SDS011;11387;51.612;7.210;2022-08-07T15:28:04;1.27;;;0.43;;
22439;SDS011;11387;51.612;7.210;2022-08-07T15:31:27;1.83;;;0.47;;
22439;SDS011;11387;51.612;7.210;2022-08-07T15:34:52;4.50;;;2.30;;
22439;SDS011;11387;51.612;7.210;2022-08-07T15:37:59;1.05;;;0.60;;
22439;SDS011;11387;51.612;7.210;2022-08-07T15:41:22;0.98;;;0.50;;
22439;SDS011;11387;51.612;7.210;2022-08-07T15:44:47;3.27;;;0.70;;
22439;SDS011;11387;51.612;7.210;2022-08-07T15:47:53;3.92;;;0.68;;
22439;SDS011;11387;51.612;7.210;2022-08-07T15:51:05;1.45;;;0.60;;
22439;SDS011;11387;51.612;7.210;2022-08-07T15:54:12;2.05;;;0.50;;
22439;SDS011;11387;51.612;7.210;2022-08-07T15:57:18;6.50;;;0.60;;
22439;SDS011;11387;51.612;7.210;2022-08-07T16:00:39;1.42;;;0.60;;
22439;SDS011;11387;51.612;7.210;2022-08-07T16:03:44;3.35;;;0.80;;
22439;SDS011;11387;51.612;7.210;2022-08-07T16:07:00;2.72;;;0.63;;
22439;SDS011;11387;51.612;7.210;2022-08-07T16:10:06;2.13;;;0.70;;
22439;SDS011;11387;51.612;7.210;2022-08-07T16:17:06;3.90;;;1.00;;
22439;SDS011;11387;51.612;7.210;2022-08-07T16:20:43;4.95;;;0.73;;
22439;SDS011;11387;51.612;7.210;2022-08-07T16:24:13;1.00;;;0.60;;
22439;SDS011;11387;51.612;7.210;2022-08-07T16:27:37;2.55;;;0.55;;
22439;SDS011;11387;51.612;7.210;2022-08-07T16:30:46;2.45;;;0.40;;
22439;SDS011;11387;51.612;7.210;2022-08-07T16:33:51;0.90;;;0.60;;
22439;SDS011;11387;51.612;7.210;2022-08-07T16:37:12;1.52;;;0.60;;
22439;SDS011;11387;51.612;7.210;2022-08-07T16:41:01;3.15;;;0.70;;
22439;SDS011;11387;51.612;7.210;2022-08-07T16:44:15;3.38;;;0.98;;
22439;SDS011;11387;51.612;7.210;2022-08-07T16:51:29;3.50;;;1.50;;
22439;SDS011;11387;51.612;7.210;2022-08-07T16:54:57;1.80;;;1.27;;
22439;SDS011;11387;51.612;7.210;2022-08-07T16:58:19;1.02;;;0.68;;
22439;SDS011;11387;51.612;7.210;2022-08-07T17:01:28;3.88;;;0.80;;
22439;SDS011;11387;51.612;7.210;2022-08-07T17:04:42;3.47;;;0.70;;
22439;SDS011;11387;51.612;7.210;2022-08-07T17:07:59;4.05;;;1.55;;
22439;SDS011;11387;51.612;7.210;2022-08-07T17:11:06;5.03;;;0.70;;
22439;SDS011;11387;51.612;7.210;2022-08-07T17:14:19;3.33;;;0.88;;
22439;SDS011;11387;51.612;7.210;2022-08-07T17:17:34;2.95;;;0.60;;
22439;SDS011;11387;51.612;7.210;2022-08-07T17:20:47;3.58;;;0.68;;
22439;SDS011;11387;51.612;7.210;2022-08-07T17:23:55;4.45;;;0.90;;
22439;SDS011;11387;51.612;7.210;2022-08-07T17:27:06;2.15;;;0.98;;
22439;SDS011;11387;51.612;7.210;2022-08-07T17:30:21;2.33;;;0.90;;
22439;SDS011;11387;51.612;7.210;2022-08-07T17:33:28;2.42;;;0.90;;
22439;SDS011;11387;51.612;7.210;2022-08-07T17:36:53;4.43;;;0.90;;
22439;SDS011;11387;51.612;7.210;2022-08-07T17:40:18;2.50;;;0.88;;
22439;SDS011;11387;51.612;7.210;2022-08-07T17:43:31;2.65;;;1.20;;
22439;SDS011;11387;51.612;7.210;2022-08-07T17:46:57;1.77;;;0.90;;
22439;SDS011;11387;51.612;7.210;2022-08-07T17:50:02;1.35;;;0.90;;
22439;SDS011;11387;51.612;7.210;2022-08-07T17:53:19;1.65;;;0.90;;
22439;SDS011;11387;51.612;7.210;2022-08-07T17:56:44;2.50;;;0.90;;
22439;SDS011;11387;51.612;7.210;2022-08-07T17:59:53;4.18;;;1.17;;
22439;SDS011;11387;51.612;7.210;2022-08-07T18:03:09;3.85;;;1.10;;
22439;SDS011;11387;51.612;7.210;2022-08-07T18:06:20;1.50;;;0.93;;
22439;SDS011;11387;51.612;7.210;2022-08-07T18:09:39;2.92;;;1.35;;
22439;SDS011;11387;51.612;7.210;2022-08-07T18:13:05;4.03;;;1.55;;
22439;SDS011;11387;51.612;7.210;2022-08-07T18:16:11;4.93;;;1.15;;
22439;SDS011;11387;51.612;7.210;2022-08-07T18:19:35;7.70;;;1.42;;
22439;SDS011;11387;51.612;7.210;2022-08-07T18:23:01;3.97;;;1.30;;
22439;SDS011;11387;51.612;7.210;2022-08-07T18:26:30;3.22;;;1.20;;
22439;SDS011;11387;51.612;7.210;2022-08-07T18:29:37;7.80;;;1.42;;
22439;SDS011;11387;51.612;7.210;2022-08-07T18:36:35;3.63;;;1.30;;
22439;SDS011;11387;51.612;7.210;2022-08-07T18:39:47;2.47;;;1.42;;
22439;SDS011;11387;51.612;7.210;2022-08-07T18:43:10;3.63;;;0.95;;
22439;SDS011;11387;51.612;7.210;2022-08-07T18:46:17;6.18;;;1.38;;
22439;SDS011;11387;51.612;7.210;2022-08-07T18:49:30;4.88;;;1.00;;
22439;SDS011;11387;51.612;7.210;2022-08-07T18:53:00;1.95;;;0.80;;
22439;SDS011;11387;51.612;7.210;2022-08-07T18:56:15;2.95;;;1.30;;
22439;SDS011;11387;51.612;7.210;2022-08-07T18:59:36;4.38;;;1.45;;
22439;SDS011;11387;51.612;7.210;2022-08-07T19:03:02;2.63;;;1.20;;
22439;SDS011;11387;51.612;7.210;2022-08-07T19:06:17;1.88;;;1.10;;
22439;SDS011;11387;51.612;7.210;2022-08-07T19:09:38;2.83;;;1.35;;
22439;SDS011;11387;51.612;7.210;2022-08-07T19:13:02;3.65;;;1.42;;
22439;SDS011;11387;51.612;7.210;2022-08-07T19:16:13;3.20;;;1.88;;
22439;SDS011;11387;51.612;7.210;2022-08-07T19:19:45;4.95;;;1.38;;
22439;SDS011;11387;51.612;7.210;2022-08-07T19:22:56;4.70;;;1.88;;
22439;SDS011;11387;51.612;7.210;2022-08-07T19:26:21;2.80;;;1.02;;
22439;SDS011;11387;51.612;7.210;2022-08-07T19:29:29;4.03;;;1.33;;
22439;SDS011;11387;51.612;7.210;2022-08-07T19:32:53;4.63;;;1.35;;
22439;SDS011;11387;51.612;7.210;2022-08-07T19:36:00;2.40;;;1.50;;
22439;SDS011;11387;51.612;7.210;2022-08-07T19:39:04;2.15;;;1.40;;
22439;SDS011;11387;51.612;7.210;2022-08-07T19:42:11;3.83;;;1.95;;
22439;SDS011;11387;51.612;7.210;2022-08-07T19:45:26;3.08;;;1.90;;
22439;SDS011;11387;51.612;7.210;2022-08-07T19:48:50;3.20;;;1.67;;
22439;SDS011;11387;51.612;7.210;2022-08-07T19:51:59;5.78;;;2.65;;
22439;SDS011;11387;51.612;7.210;2022-08-07T19:55:02;4.82;;;2.45;;
22439;SDS011;11387;51.612;7.210;2022-08-07T19:58:12;9.30;;;4.25;;
22439;SDS011;11387;51.612;7.210;2022-08-07T20:04:19;6.45;;;3.33;;